Time;durP1;ratioP1;P1;durP2;ratioP2;P2;SDS_P1;SDS_P2;PMS_P1;PMS_P2;Temp;Humidity;BMP_temperature;BMP_pressure;BME280_temperature;BME280_humidity;BME280_pressure;Samples;Min_cycle;Max_cycle;Signal;HPM_P1;HPM_P2
2022/05/22 00:02:56;;;;;;;2.60;2.40;;;;;;;11.83;77.25;99755.67;130437;1268;108866;-82
2022/05/22 00:06:02;;;;;;;5.20;2.70;;;;;;;11.75;77.44;99752.09;130417;1268;108688;-81
2022/05/22 00:09:07;;;;;;;3.80;2.30;;;;;;;11.70;77.24;99743.55;130366;1268;107611;-83
2022/05/22 00:12:13;;;;;;;2.60;2.10;;;;;;;11.62;77.22;99743.95;130430;1268;108946;-82
2022/05/22 00:15:19;;;;;;;4.30;1.90;;;;;;;11.58;76.86;99740.42;130420;1268;109016;-82
2022/05/22 00:18:24;;;;;;;4.90;2.00;;;;;;;11.57;76.19;99739.70;130421;1268;107703;-81
2022/05/22 00:21:29;;;;;;;2.30;2.00;;;;;;;11.56;76.15;99739.89;130416;1268;107474;-82
2022/05/22 00:24:36;;;;;;;2.90;1.90;;;;;;;11.53;76.37;99740.15;130395;1268;108759;-81
2022/05/22 00:27:43;;;;;;;2.20;1.50;;;;;;;11.49;75.86;99739.52;130463;1268;108798;-82
2022/05/22 00:30:48;;;;;;;2.10;1.60;;;;;;;11.49;76.09;99741.32;130475;1268;108700;-82
2022/05/22 00:33:54;;;;;;;3.40;1.90;;;;;;;11.54;76.19;99739.13;130402;1268;108733;-82
2022/05/22 00:36:59;;;;;;;2.90;1.90;;;;;;;11.61;75.75;99737.85;130423;1268;108954;-83
2022/05/22 00:40:06;;;;;;;2.80;2.00;;;;;;;11.69;75.86;99742.05;130383;1268;108698;-82
2022/05/22 00:46:45;;;;;;;2.90;1.90;;;;;;;11.71;76.23;99740.95;125987;1309;636772;-82
2022/05/22 00:49:59;;;;;;;2.80;2.00;;;;;;;11.70;77.23;99738.77;129338;1280;108662;-82
2022/05/22 00:53:05;;;;;;;3.30;2.30;;;;;;;11.72;77.50;99740.34;129565;1277;108664;-81
2022/05/22 00:56:15;;;;;;;3.10;1.70;;;;;;;11.71;77.32;99741.52;129522;1277;108834;-82
2022/05/22 00:59:25;;;;;;;2.70;1.70;;;;;;;11.73;77.19;99738.86;129552;1274;220096;-82
2022/05/22 01:03:26;;;;;;;2.40;2.00;;;;;;;11.77;77.20;99739.38;129794;1274;108916;-82
2022/05/22 01:06:01;;;;;;;2.90;1.90;;;;;;;11.81;76.36;99743.21;129936;1274;108956;-81
2022/05/22 01:09:08;;;;;;;2.20;2.00;;;;;;;11.86;76.23;99743.23;129957;1274;108658;-81
2022/05/22 01:12:20;;;;;;;2.00;1.60;;;;;;;11.82;76.51;99744.91;129894;1274;108632;-82
2022/05/22 01:15:28;;;;;;;2.50;1.80;;;;;;;11.78;76.59;99747.66;129929;1274;108765;-82
2022/05/22 01:18:43;;;;;;;3.10;1.80;;;;;;;11.80;76.03;99747.75;130058;1270;108678;-82
2022/05/22 01:21:53;;;;;;;3.40;2.00;;;;;;;11.84;76.16;99750.59;130145;1271;108931;-81
2022/05/22 01:24:59;;;;;;;2.40;2.20;;;;;;;11.78;76.14;99754.19;130113;1271;108661;-82
2022/05/22 01:28:05;;;;;;;1.90;1.70;;;;;;;11.67;76.96;99754.80;130252;1271;108581;-81
2022/05/22 01:31:11;;;;;;;3.30;1.40;;;;;;;11.55;76.62;99749.36;130125;1271;109033;-82
2022/05/22 01:34:17;;;;;;;1.90;1.60;;;;;;;11.47;77.24;99751.44;130073;1271;108430;-81
2022/05/22 01:37:24;;;;;;;3.10;2.00;;;;;;;11.38;76.97;99748.14;130099;1271;108852;-82
2022/05/22 01:40:30;;;;;;;2.30;1.90;;;;;;;11.30;76.77;99751.95;130214;1271;108701;-83
2022/05/22 01:43:35;;;;;;;2.50;1.80;;;;;;;11.20;76.88;99754.77;130054;1269;108605;-82
2022/05/22 01:46:46;;;;;;;2.80;1.80;;;;;;;11.16;76.76;99762.06;130147;1271;109084;-80
2022/05/22 01:49:51;;;;;;;2.50;1.60;;;;;;;11.15;77.11;99761.92;130007;1271;108386;-83
2022/05/22 01:52:58;;;;;;;2.20;1.60;;;;;;;11.18;77.12;99762.73;130151;1270;108804;-81
2022/05/22 01:56:03;;;;;;;3.00;1.60;;;;;;;11.18;77.04;99757.55;130197;1271;108859;-81
2022/05/22 01:59:11;;;;;;;1.70;1.60;;;;;;;11.17;77.52;99760.45;130237;1271;108811;-81
2022/05/22 02:02:21;;;;;;;2.90;1.60;;;;;;;11.17;77.58;99755.29;130076;1271;108693;-81
2022/05/22 02:05:27;;;;;;;3.20;1.80;;;;;;;11.23;76.79;99756.85;130115;1271;106951;-81
2022/05/22 02:08:32;;;;;;;3.00;1.80;;;;;;;11.27;77.35;99759.77;130214;1271;108664;-81
2022/05/22 02:11:38;;;;;;;4.20;2.00;;;;;;;11.27;76.93;99758.80;130062;1271;108715;-82
2022/05/22 02:14:44;;;;;;;2.60;1.90;;;;;;;11.27;77.19;99761.30;130121;1271;108864;-81
2022/05/22 02:17:53;;;;;;;2.40;2.00;;;;;;;11.28;76.95;99760.16;130133;1270;108742;-81
2022/05/22 02:20:59;;;;;;;3.90;1.90;;;;;;;11.29;76.77;99757.94;130220;1271;108969;-82
2022/05/22 02:24:06;;;;;;;3.20;1.90;;;;;;;11.35;77.12;99761.12;130114;1270;109436;-82
2022/05/22 02:27:11;;;;;;;2.70;2.30;;;;;;;11.35;76.96;99763.33;130062;1271;108885;-81
2022/05/22 02:30:20;;;;;;;3.80;2.40;;;;;;;11.31;76.46;99763.70;130016;1271;107701;-82
2022/05/22 02:33:26;;;;;;;2.30;2.10;;;;;;;11.32;76.67;99768.20;129996;1271;108594;-81
2022/05/22 02:36:35;;;;;;;4.10;2.10;;;;;;;11.31;76.96;99760.16;130080;1271;107735;-81
2022/05/22 02:39:40;;;;;;;3.70;2.20;;;;;;;11.29;76.46;99760.40;130149;1271;108579;-81
2022/05/22 02:43:06;;;;;;;4.60;2.30;;;;;;;11.33;76.33;99758.48;130209;1271;108686;-82
2022/05/22 02:46:14;;;;;;;2.90;2.30;;;;;;;11.38;77.05;99758.02;130128;1271;108853;-81
2022/05/22 02:49:19;;;;;;;2.50;2.20;;;;;;;11.33;76.42;99757.37;129986;1271;109126;-81
2022/05/22 02:52:26;;;;;;;4.20;2.30;;;;;;;11.32;76.42;99759.55;130053;1271;108712;-82
2022/05/22 02:55:31;;;;;;;3.30;2.20;;;;;;;11.33;76.39;99757.83;130032;1271;108680;-82
2022/05/22 02:58:37;;;;;;;4.00;2.40;;;;;;;11.31;76.19;99759.16;130140;1271;108771;-82
2022/05/22 03:01:42;;;;;;;3.80;2.60;;;;;;;11.29;76.08;99761.43;130021;1271;108773;-82
2022/05/22 03:04:48;;;;;;;4.00;2.10;;;;;;;11.25;76.06;99761.24;130053;1271;108809;-81
2022/05/22 03:07:54;;;;;;;4.40;2.30;;;;;;;11.16;76.04;99767.57;130208;1270;108118;-82
2022/05/22 03:11:10;;;;;;;3.70;2.70;;;;;;;11.15;76.21;99762.27;130112;1271;108707;-81
2022/05/22 03:14:16;;;;;;;2.90;2.10;;;;;;;11.21;76.66;99766.45;130042;1270;109059;-81
2022/05/22 03:17:23;;;;;;;3.10;2.60;;;;;;;11.26;76.16;99761.84;130063;1271;109007;-81
2022/05/22 03:20:33;;;;;;;2.60;2.30;;;;;;;11.24;76.36;99770.02;130045;1271;108891;-80
2022/05/22 03:23:39;;;;;;;2.50;2.10;;;;;;;11.17;76.36;99772.73;130047;1271;108860;-81
2022/05/22 03:26:45;;;;;;;2.70;2.00;;;;;;;11.13;76.61;99772.85;130121;1271;108885;-82
2022/05/22 03:29:51;;;;;;;3.20;2.40;;;;;;;11.19;76.17;99775.04;130118;1271;108846;-81
2022/05/22 03:32:57;;;;;;;4.40;2.80;;;;;;;11.18;76.49;99774.94;130231;1269;108954;-82
2022/05/22 03:36:04;;;;;;;2.40;2.20;;;;;;;11.16;76.96;99774.80;130153;1271;108767;-81
2022/05/22 03:39:10;;;;;;;2.40;2.10;;;;;;;11.18;76.31;99771.06;130192;1270;108775;-81
2022/05/22 03:42:16;;;;;;;3.00;2.50;;;;;;;11.19;76.67;99775.54;130417;1265;108593;-80
2022/05/22 03:45:22;;;;;;;2.90;2.50;;;;;;;11.22;76.67;99770.27;130454;1265;108899;-80
2022/05/22 03:48:27;;;;;;;3.60;2.30;;;;;;;11.27;76.79;99776.30;130442;1265;108782;-81
2022/05/22 03:51:34;;;;;;;2.80;2.50;;;;;;;11.27;76.86;99777.77;130439;1265;108867;-81
2022/05/22 03:54:39;;;;;;;2.50;2.30;;;;;;;11.22;76.62;99778.81;130616;1265;108775;-81
2022/05/22 03:57:49;;;;;;;3.30;2.10;;;;;;;11.24;76.46;99782.54;130374;1265;108701;-81
2022/05/22 04:00:55;;;;;;;3.50;2.30;;;;;;;11.24;77.28;99786.91;130441;1265;108760;-80
2022/05/22 04:04:01;;;;;;;4.90;2.70;;;;;;;11.25;76.76;99785.09;130458;1265;108846;-82
2022/05/22 04:07:07;;;;;;;4.20;3.00;;;;;;;11.28;77.16;99785.08;130584;1265;108858;-81
2022/05/22 04:10:16;;;;;;;3.90;3.10;;;;;;;11.28;77.16;99777.09;130476;1265;108733;-81
2022/05/22 04:13:21;;;;;;;3.10;2.50;;;;;;;11.28;76.74;99778.98;130411;1265;109015;-81
2022/05/22 04:16:31;;;;;;;4.70;3.30;;;;;;;11.34;76.69;99782.79;130443;1265;107711;-80
2022/05/22 04:19:38;;;;;;;4.30;2.80;;;;;;;11.35;76.82;99782.39;130398;1265;108945;-81
2022/05/22 04:26:06;;;;;;;;;;;;;;;11.26;76.60;99795.76;130175;1265;108695;-80
2022/05/22 04:29:12;;;;;;;4.20;3.80;;;;;;;11.18;76.76;99796.36;130423;1265;108880;-80
2022/05/22 04:32:17;;;;;;;4.50;3.60;;;;;;;11.15;76.81;99789.23;130387;1265;108768;-82
2022/05/22 04:35:28;;;;;;;5.10;3.50;;;;;;;11.13;76.63;99792.10;130503;1265;108687;-81
2022/05/22 04:38:34;;;;;;;4.50;3.50;;;;;;;11.16;76.75;99791.70;130416;1268;108881;-81
2022/05/22 04:41:39;;;;;;;4.20;3.80;;;;;;;11.27;76.55;99793.95;130367;1265;108676;-81
2022/05/22 04:44:45;;;;;;;4.90;4.40;;;;;;;11.30;76.46;99791.45;130451;1265;107742;-80
2022/05/22 04:48:12;;;;;;;5.30;4.00;;;;;;;11.25;76.75;99800.43;130489;1265;108846;-81
2022/05/22 04:51:33;;;;;;;4.90;3.70;;;;;;;11.16;76.64;99795.00;130413;1265;108892;-81
2022/05/22 04:54:42;;;;;;;5.20;3.50;;;;;;;11.12;76.51;99796.44;130416;1265;108671;-80
2022/05/22 04:57:48;;;;;;;4.40;3.50;;;;;;;11.18;77.01;99789.52;130410;1265;108961;-81
2022/05/22 05:00:55;;;;;;;4.60;3.60;;;;;;;11.25;76.32;99789.23;130341;1268;108750;-81
2022/05/22 05:04:03;;;;;;;5.50;2.90;;;;;;;11.36;76.39;99781.83;130464;1265;108886;-81
2022/05/22 05:07:11;;;;;;;3.20;2.90;;;;;;;11.59;76.41;99780.73;130436;1265;108669;-82
2022/05/22 05:10:26;;;;;;;4.50;2.80;;;;;;;11.86;75.53;99783.27;130415;1265;108785;-81
2022/05/22 05:13:58;;;;;;;3.30;2.90;;;;;;;12.16;74.78;99780.48;130360;1265;108674;-81
2022/05/22 05:17:07;;;;;;;2.80;2.40;;;;;;;12.46;73.70;99779.36;130394;1265;108745;-81
2022/05/22 05:20:16;;;;;;;3.20;2.50;;;;;;;12.57;73.52;99779.52;130452;1265;108860;-81
2022/05/22 05:23:28;;;;;;;2.30;2.10;;;;;;;12.67;73.08;99778.77;130419;1265;108826;-80
2022/05/22 05:26:41;;;;;;;2.90;2.00;;;;;;;12.74;72.11;99779.15;130422;1265;108713;-81
2022/05/22 05:29:52;;;;;;;2.70;2.30;;;;;;;12.74;71.95;99778.61;130412;1265;108894;-81
2022/05/22 05:32:59;;;;;;;3.30;2.10;;;;;;;12.85;72.19;99775.85;130441;1265;108409;-81
2022/05/22 05:36:23;;;;;;;3.20;1.90;;;;;;;13.02;71.37;99768.77;130476;1265;108827;-82
2022/05/22 05:40:06;;;;;;;3.60;2.30;;;;;;;13.00;71.57;99766.66;129951;1271;108757;-82
2022/05/22 05:43:19;;;;;;;2.80;2.50;;;;;;;13.00;71.24;99767.42;130414;1265;108731;-80
2022/05/22 05:46:25;;;;;;;2.30;1.90;;;;;;;13.11;72.37;99759.00;130368;1265;108844;-81
2022/05/22 05:49:31;;;;;;;3.10;2.80;;;;;;;13.35;71.85;99754.66;130396;1265;108586;-81
2022/05/22 05:52:58;;;;;;;4.30;2.80;;;;;;;13.50;71.59;99755.79;130562;1264;108981;-81
2022/05/22 05:56:19;;;;;;;3.40;2.70;;;;;;;13.61;70.79;99754.82;130596;1265;108802;-81
2022/05/22 05:59:33;;;;;;;3.90;2.50;;;;;;;13.76;70.59;99757.42;130595;1265;108869;-81
2022/05/22 06:02:51;;;;;;;2.80;2.40;;;;;;;13.92;70.39;99764.80;130609;1265;108810;-81
2022/05/22 06:05:56;;;;;;;3.40;2.80;;;;;;;14.01;69.93;99763.15;130533;1265;108816;-81
2022/05/22 06:09:11;;;;;;;3.70;2.70;;;;;;;14.09;70.57;99758.08;130420;1265;108654;-81
2022/05/22 06:12:35;;;;;;;2.80;2.40;;;;;;;14.21;69.80;99763.02;130461;1265;108961;-81
2022/05/22 06:15:46;;;;;;;3.80;2.00;;;;;;;14.17;67.33;99769.74;130521;1265;108702;-80
2022/05/22 06:18:52;;;;;;;2.90;1.90;;;;;;;14.03;67.48;99762.96;130450;1265;108937;-80
2022/05/22 06:21:58;;;;;;;3.00;1.80;;;;;;;14.02;66.46;99767.13;130425;1265;108689;-81
2022/05/22 06:25:05;;;;;;;2.90;1.80;;;;;;;14.03;67.40;99762.09;130504;1265;108864;-80
2022/05/22 06:28:29;;;;;;;4.20;2.00;;;;;;;14.18;67.41;99764.27;130518;1264;108847;-79
2022/05/22 06:31:46;;;;;;;2.30;1.90;;;;;;;14.19;67.02;99764.92;130431;1265;107736;-79
2022/05/22 06:35:14;;;;;;;3.00;1.90;;;;;;;14.02;67.10;99766.09;130391;1265;108799;-81
2022/05/22 06:42:28;;;;;;;;;;;;;;;14.19;67.20;99759.05;130414;1265;108620;-81
2022/05/22 06:45:52;;;;;;;2.20;1.80;;;;;;;14.28;67.13;99760.45;130524;1265;108855;-81
2022/05/22 06:49:17;;;;;;;1.70;1.60;;;;;;;14.24;66.03;99765.44;130598;1265;108422;-79
2022/05/22 06:52:41;;;;;;;2.30;1.60;;;;;;;14.43;66.06;99765.52;130557;1265;109262;-81
2022/05/22 06:56:16;;;;;;;2.70;1.80;;;;;;;14.65;66.02;99760.39;130207;1265;108098;-83
2022/05/22 06:59:40;;;;;;;3.00;2.00;;;;;;;14.92;65.75;99756.11;130691;1265;108902;-83
2022/05/22 07:03:06;;;;;;;2.60;1.90;;;;;;;14.97;64.63;99760.70;130429;1265;108060;-80
2022/05/22 07:06:30;;;;;;;2.10;1.90;;;;;;;14.76;63.24;99761.10;130453;1265;109050;-80
2022/05/22 07:09:54;;;;;;;2.10;1.60;;;;;;;14.91;63.11;99758.88;130389;1264;108737;-82
2022/05/22 07:13:22;;;;;;;2.00;1.40;;;;;;;15.01;61.76;99765.66;130403;1265;108704;-82
2022/05/22 07:16:41;;;;;;;1.60;1.40;;;;;;;14.94;60.04;99752.23;130395;1265;108833;-81
2022/05/22 07:19:59;;;;;;;1.80;1.60;;;;;;;14.80;61.26;99768.49;130460;1265;108676;-80
2022/05/22 07:23:25;;;;;;;2.60;2.20;;;;;;;14.62;62.08;99774.09;130216;1266;110179;-81
2022/05/22 07:26:53;;;;;;;3.40;2.40;;;;;;;14.43;63.36;99770.23;130416;1265;108863;-80
2022/05/22 07:30:33;;;;;;;2.40;2.10;;;;;;;14.53;62.67;99767.16;130353;1265;108838;-81
2022/05/22 07:34:11;;;;;;;3.00;2.00;;;;;;;14.54;62.89;99764.77;130317;1265;108700;-81
2022/05/22 07:37:40;;;;;;;2.00;1.80;;;;;;;14.67;62.86;99763.81;130323;1264;108763;-81
2022/05/22 07:41:04;;;;;;;1.90;1.70;;;;;;;14.72;61.80;99764.69;130505;1265;107028;-81
2022/05/22 07:44:46;;;;;;;2.70;1.70;;;;;;;14.87;60.97;99764.55;130103;1265;108738;-80
2022/05/22 07:48:10;;;;;;;2.60;2.00;;;;;;;14.96;62.11;99759.83;130514;1265;108914;-82
2022/05/22 07:51:52;;;;;;;1.80;1.70;;;;;;;15.28;61.00;99764.83;130395;1264;108718;-79
2022/05/22 07:55:21;;;;;;;2.20;2.00;;;;;;;15.39;60.14;99767.14;130396;1265;108681;-79
2022/05/22 07:58:45;;;;;;;2.50;2.30;;;;;;;15.51;60.55;99761.13;130398;1268;108719;-79
2022/05/22 08:02:13;;;;;;;3.00;2.10;;;;;;;15.33;59.91;99765.94;130577;1266;108743;-81
2022/05/22 08:05:22;;;;;;;2.20;2.00;;;;;;;15.16;59.82;99771.44;130383;1267;108958;-81
2022/05/22 08:08:34;;;;;;;2.60;1.70;;;;;;;14.95;59.77;99770.23;130346;1268;108760;-81
2022/05/22 08:11:49;;;;;;;2.00;1.80;;;;;;;14.92;59.51;99771.03;130418;1268;108648;-80
2022/05/22 08:14:55;;;;;;;2.10;1.60;;;;;;;14.85;59.00;99765.15;130390;1266;108749;-80
2022/05/22 08:18:01;;;;;;;3.50;1.80;;;;;;;14.86;58.64;99763.38;130352;1268;108701;-80
2022/05/22 08:21:07;;;;;;;2.10;1.60;;;;;;;14.96;59.09;99752.67;130369;1268;109108;-84
2022/05/22 08:24:18;;;;;;;3.60;1.90;;;;;;;15.01;58.70;99743.50;130516;1268;108875;-84
2022/05/22 08:27:25;;;;;;;3.40;1.60;;;;;;;15.11;59.53;99746.34;130603;1265;108960;-80
2022/05/22 08:30:32;;;;;;;2.70;2.00;;;;;;;15.15;59.51;99744.73;130394;1267;108710;-82
2022/05/22 08:33:38;;;;;;;2.40;1.90;;;;;;;15.19;59.45;99736.14;130422;1267;108767;-81
2022/05/22 08:36:50;;;;;;;2.00;1.80;;;;;;;15.28;59.62;99736.29;130523;1267;108739;-83
2022/05/22 08:39:55;;;;;;;2.60;1.60;;;;;;;15.50;58.46;99740.48;130413;1267;108648;-81
2022/05/22 08:43:07;;;;;;;1.80;1.30;;;;;;;15.79;57.39;99738.59;130483;1266;108788;-80
2022/05/22 08:46:13;;;;;;;;;;;;;;;15.99;57.03;99736.41;130390;1266;108691;-81
2022/05/22 08:49:25;;;;;;;2.30;1.70;;;;;;;16.17;56.94;99736.39;130481;1267;108799;-80
2022/05/22 08:52:35;;;;;;;1.50;1.40;;;;;;;16.21;55.92;99743.07;130461;1267;108876;-80
2022/05/22 08:59:15;;;;;;;2.10;1.30;;;;;;;16.20;56.79;99738.51;130399;1266;108582;-80
2022/05/22 09:02:33;;;;;;;2.40;1.40;;;;;;;16.14;55.40;99742.51;130413;1268;108675;-80
2022/05/22 09:05:40;;;;;;;2.00;1.40;;;;;;;16.06;56.19;99740.36;130448;1268;108598;-82
2022/05/22 09:08:48;;;;;;;1.70;1.30;;;;;;;16.04;56.35;99740.77;130422;1267;108855;-81
2022/05/22 09:12:09;;;;;;;1.70;1.00;;;;;;;16.05;55.32;99737.80;130392;1267;108682;-81
2022/05/22 09:15:20;;;;;;;0.90;0.80;;;;;;;15.84;54.99;99743.77;130511;1267;108885;-80
2022/05/22 09:18:32;;;;;;;1.90;0.90;;;;;;;15.76;54.30;99740.54;130528;1267;108673;-82
2022/05/22 09:21:48;;;;;;;1.00;0.80;;;;;;;15.84;55.53;99739.11;130501;1266;108731;-82
2022/05/22 09:25:08;;;;;;;1.80;0.90;;;;;;;15.89;55.42;99738.64;130592;1268;109078;-81
2022/05/22 09:28:26;;;;;;;0.90;0.80;;;;;;;15.84;55.33;99735.89;130512;1267;108762;-81
2022/05/22 09:31:44;;;;;;;0.80;0.70;;;;;;;15.78;55.73;99740.41;130449;1266;106664;-80
2022/05/22 09:34:59;;;;;;;1.30;1.20;;;;;;;15.59;55.23;99745.88;130549;1267;108766;-82
2022/05/22 09:38:19;;;;;;;1.80;1.60;;;;;;;15.49;56.18;99747.71;130552;1267;108681;-80
2022/05/22 09:41:40;;;;;;;1.60;1.40;;;;;;;15.40;55.59;99751.67;130386;1267;108860;-80
2022/05/22 09:45:07;;;;;;;3.00;2.40;;;;;;;15.24;56.57;99759.84;130562;1268;107701;-81
2022/05/22 09:48:36;;;;;;;2.10;1.90;;;;;;;15.12;56.74;99760.36;130515;1267;108725;-81
2022/05/22 09:51:50;;;;;;;2.80;2.00;;;;;;;14.90;56.82;99759.93;130490;1267;108954;-81
2022/05/22 09:55:11;;;;;;;2.10;1.70;;;;;;;14.75;57.16;99761.95;130515;1266;108670;-81
2022/05/22 09:58:49;;;;;;;2.70;2.50;;;;;;;14.63;57.91;99766.34;130527;1266;107731;-80
2022/05/22 10:02:04;;;;;;;7.20;2.70;;;;;;;14.48;58.94;99766.70;130592;1268;108693;-82
2022/05/22 10:05:20;;;;;;;2.90;2.50;;;;;;;14.60;59.21;99767.62;130550;1268;109110;-80
2022/05/22 10:08:38;;;;;;;2.80;2.20;;;;;;;14.82;58.73;99767.39;130585;1265;108684;-82
2022/05/22 10:11:57;;;;;;;1.90;1.60;;;;;;;15.04;58.24;99767.82;130562;1266;108871;-81
2022/05/22 10:15:17;;;;;;;1.90;1.60;;;;;;;15.21;57.76;99763.25;130567;1268;108839;-80
2022/05/22 10:18:37;;;;;;;1.20;1.10;;;;;;;15.38;55.88;99764.27;130529;1267;108954;-81
2022/05/22 10:21:49;;;;;;;1.70;0.90;;;;;;;15.49;55.72;99757.05;130557;1267;108730;-82
2022/05/22 10:25:09;;;;;;;2.00;0.90;;;;;;;15.69;56.10;99751.80;130664;1268;108738;-82
2022/05/22 10:28:20;;;;;;;1.70;1.40;;;;;;;16.09;56.96;99751.52;130617;1266;108674;-84
2022/05/22 10:31:36;;;;;;;1.90;1.60;;;;;;;16.34;55.99;99758.27;130594;1268;108722;-84
2022/05/22 10:34:47;;;;;;;3.90;2.10;;;;;;;16.26;55.94;99760.19;130652;1268;108941;-82
2022/05/22 10:37:59;;;;;;;1.70;1.60;;;;;;;16.05;56.23;99764.08;130674;1267;108702;-82
2022/05/22 10:44:49;;;;;;;2.90;1.80;;;;;;;15.81;56.41;99772.75;130658;1268;108735;-82
2022/05/22 10:48:06;;;;;;;2.80;1.30;;;;;;;15.83;56.10;99772.64;130670;1268;108674;-82
2022/05/22 10:51:23;;;;;;;1.80;1.30;;;;;;;15.83;55.83;99769.71;130610;1266;107708;-82
2022/05/22 10:58:35;;;;;;;2.40;1.00;;;;;;;16.20;55.18;99765.89;130366;1266;107688;-83
2022/05/22 11:01:41;;;;;;;1.40;1.00;;;;;;;16.61;56.21;99756.83;130519;1267;108979;-82
2022/05/22 11:04:48;;;;;;;1.40;1.10;;;;;;;16.92;53.64;99759.42;130559;1267;107124;-83
2022/05/22 11:07:56;;;;;;;0.80;0.70;;;;;;;16.79;54.20;99758.98;130579;1267;107609;-82
2022/05/22 11:11:14;;;;;;;0.80;0.70;;;;;;;16.59;53.08;99759.02;130675;1266;107699;-83
2022/05/22 11:14:24;;;;;;;0.70;0.60;;;;;;;16.42;52.47;99769.39;130648;1268;108867;-82
2022/05/22 11:17:29;;;;;;;1.10;0.60;;;;;;;16.21;52.55;99768.08;130657;1268;108671;-82
2022/05/22 11:20:35;;;;;;;1.10;0.80;;;;;;;15.97;53.03;99769.94;130674;1268;108863;-82
2022/05/22 11:24:13;;;;;;;1.00;0.70;;;;;;;15.82;53.81;99771.01;130625;1267;108958;-82
2022/05/22 11:27:37;;;;;;;3.30;0.70;;;;;;;15.80;54.13;99770.01;130511;1268;108848;-83
2022/05/22 11:30:50;;;;;;;1.10;0.80;;;;;;;15.74;53.91;99775.43;130641;1266;108515;-81
2022/05/22 11:34:05;;;;;;;2.20;0.80;;;;;;;15.80;54.50;99767.90;130650;1268;108664;-81
2022/05/22 11:37:19;;;;;;;0.60;0.60;;;;;;;15.94;53.39;99764.05;130660;1266;109486;-82
2022/05/22 11:40:34;;;;;;;1.20;0.90;;;;;;;16.13;53.44;99763.55;130658;1268;108804;-81
2022/05/22 11:44:14;;;;;;;2.90;0.80;;;;;;;16.28;53.96;99760.52;130645;1267;108799;-82
2022/05/22 11:47:39;;;;;;;0.80;0.70;;;;;;;16.51;51.85;99762.36;130652;1267;108752;-83
2022/05/22 11:50:54;;;;;;;1.50;0.70;;;;;;;16.36;50.69;99756.08;130601;1268;108705;-81
2022/05/22 11:54:28;;;;;;;1.30;0.90;;;;;;;16.17;52.23;99771.45;130525;1266;108677;-83
2022/05/22 11:57:40;;;;;;;1.70;0.90;;;;;;;16.01;51.72;99777.70;130616;1268;108851;-82
2022/05/22 12:00:49;;;;;;;;;;;;;;;16.02;51.81;99788.80;130610;1267;108727;-81
2022/05/22 12:04:10;;;;;;;32.20;18.70;;;;;;;16.04;51.47;99790.17;130669;1268;107693;-81
2022/05/22 12:07:33;;;;;;;6.90;4.30;;;;;;;16.04;52.18;99792.11;130676;1266;108801;-80
2022/05/22 12:10:47;;;;;;;5.30;2.90;;;;;;;15.99;52.06;99788.85;130641;1267;108906;-82
2022/05/22 12:13:59;;;;;;;8.60;7.10;;;;;;;15.79;52.19;99804.60;130685;1268;108711;-83
2022/05/22 12:17:06;;;;;;;;;;;;;;;15.70;52.71;99788.94;130665;1267;108963;-81
2022/05/22 12:20:23;;;;;;;2.50;1.70;;;;;;;15.77;52.81;99787.59;130671;1268;108792;-81
2022/05/22 12:23:32;;;;;;;2.30;2.10;;;;;;;15.92;52.46;99792.30;130623;1268;108704;-81
2022/05/22 12:26:40;;;;;;;2.20;1.60;;;;;;;16.09;52.15;99788.13;130638;1266;108810;-81
2022/05/22 12:29:56;;;;;;;2.50;1.20;;;;;;;16.33;52.54;99786.17;130628;1266;108830;-82
2022/05/22 12:33:11;;;;;;;1.20;0.80;;;;;;;16.58;51.88;99779.70;130633;1267;107682;-81
2022/05/22 12:36:26;;;;;;;18.30;11.60;;;;;;;16.63;51.29;99786.13;130541;1266;108721;-82
2022/05/22 12:39:51;;;;;;;2.50;1.50;;;;;;;16.79;50.82;99779.52;130664;1268;109030;-80
2022/05/22 12:42:59;;;;;;;2.30;1.20;;;;;;;16.88;50.75;99784.34;130534;1267;109512;-82
2022/05/22 12:46:08;;;;;;;1.40;1.30;;;;;;;16.81;50.82;99787.71;130569;1267;108946;-81
2022/05/22 12:49:24;;;;;;;1.20;1.10;;;;;;;16.71;50.30;99790.76;130576;1268;107472;-80
2022/05/22 12:52:32;;;;;;;1.00;0.80;;;;;;;16.63;48.93;99790.02;130554;1267;109246;-80
2022/05/22 12:55:38;;;;;;;1.80;0.80;;;;;;;16.59;48.67;99791.89;130587;1267;108713;-80
2022/05/22 12:58:51;;;;;;;2.80;1.10;;;;;;;16.54;49.67;99787.27;130426;1268;225442;-81
2022/05/22 13:01:58;;;;;;;3.10;1.00;;;;;;;16.59;50.37;99784.17;130570;1268;108823;-81
2022/05/22 13:05:14;;;;;;;1.30;1.00;;;;;;;16.63;50.56;99783.90;130561;1266;109137;-82
2022/05/22 13:08:27;;;;;;;1.60;1.40;;;;;;;16.65;50.87;99778.77;130548;1267;108679;-83
2022/05/22 13:11:42;;;;;;;1.40;0.90;;;;;;;16.68;50.31;99782.12;130609;1268;109087;-80
2022/05/22 13:14:55;;;;;;;1.90;0.70;;;;;;;16.80;49.89;99771.25;130589;1265;107668;-82
2022/05/22 13:18:13;;;;;;;1.10;0.80;;;;;;;17.20;50.14;99772.52;130673;1267;108651;-81
2022/05/22 13:21:31;;;;;;;1.50;0.90;;;;;;;17.49;48.55;99773.41;130706;1268;108724;-83
2022/05/22 13:24:38;;;;;;;1.00;0.90;;;;;;;17.65;48.48;99761.33;130623;1268;108613;-82
2022/05/22 13:27:46;;;;;;;1.60;0.70;;;;;;;17.71;48.64;99761.95;130673;1268;109252;-78
2022/05/22 13:30:57;;;;;;;1.20;0.80;;;;;;;17.80;49.19;99762.38;130555;1266;108648;-82
2022/05/22 13:34:19;;;;;;;1.30;1.00;;;;;;;17.83;48.26;99765.08;130527;1266;108711;-82
2022/05/22 13:37:29;;;;;;;1.50;1.10;;;;;;;17.60;48.34;99768.65;130468;1268;108632;-79
2022/05/22 13:40:47;;;;;;;1.70;1.10;;;;;;;17.47;48.70;99760.34;130697;1267;108957;-79
2022/05/22 13:44:28;;;;;;;1.30;0.80;;;;;;;17.35;49.20;99755.01;130932;1266;108690;-83
2022/05/22 13:48:03;;;;;;;1.50;1.10;;;;;;;17.43;49.07;99750.42;130526;1267;109119;-83
2022/05/22 13:54:45;;;;;;;1.70;1.00;;;;;;;17.62;49.06;99743.20;130525;1268;108667;-80
2022/05/22 13:57:58;;;;;;;0.90;0.80;;;;;;;17.62;47.56;99745.90;130479;1268;108912;-81
2022/05/22 14:01:12;;;;;;;3.70;2.30;;;;;;;17.37;48.00;99742.30;130647;1268;108488;-84
2022/05/22 14:04:19;;;;;;;31.90;25.20;;;;;;;17.31;48.04;99745.23;130536;1267;108597;-85
2022/05/22 14:07:34;;;;;;;2.80;2.20;;;;;;;17.16;47.97;99740.84;130712;1267;108752;-79
2022/05/22 14:10:40;;;;;;;3.10;2.80;;;;;;;16.89;48.47;99739.78;130529;1267;108645;-81
2022/05/22 14:13:54;;;;;;;1.40;1.30;;;;;;;16.81;48.77;99741.45;130705;1268;108533;-82
2022/05/22 14:17:02;;;;;;;2.00;1.40;;;;;;;16.68;48.29;99741.75;130754;1268;108590;-78
2022/05/22 14:20:18;;;;;;;1.40;1.10;;;;;;;16.55;48.16;99736.89;130515;1268;108863;-81
2022/05/22 14:23:30;;;;;;;2.80;1.70;;;;;;;16.42;48.39;99737.45;130596;1268;107654;-84
2022/05/22 14:26:36;;;;;;;1.70;1.40;;;;;;;16.26;48.96;99731.23;130701;1267;108823;-81
2022/05/22 14:29:42;;;;;;;2.50;2.30;;;;;;;16.14;49.78;99734.30;130694;1267;108846;-80
2022/05/22 14:32:51;;;;;;;1.50;1.10;;;;;;;16.15;48.79;99734.72;130692;1268;108839;-80
2022/05/22 14:36:10;;;;;;;1.70;1.30;;;;;;;16.29;47.52;99737.70;130670;1266;108880;-81
2022/05/22 14:39:18;;;;;;;6.20;4.10;;;;;;;16.57;47.76;99740.33;130612;1268;108774;-79
2022/05/22 14:42:28;;;;;;;2.70;1.30;;;;;;;16.86;48.17;99729.80;130543;1268;108735;-77
2022/05/22 14:45:37;;;;;;;2.60;2.10;;;;;;;17.08;47.15;99733.63;130399;1268;108854;-77
2022/05/22 14:48:46;;;;;;;2.30;1.80;;;;;;;17.10;46.66;99730.35;130504;1267;108549;-77
2022/05/22 14:51:56;;;;;;;2.30;2.10;;;;;;;17.09;47.92;99729.23;130917;1267;109052;-78
2022/05/22 14:55:07;;;;;;;28.20;14.90;;;;;;;17.11;47.63;99733.97;130615;1268;108885;-78
2022/05/22 14:58:18;;;;;;;24.40;15.20;;;;;;;17.04;47.87;99735.05;130689;1268;108983;-79
2022/05/22 15:01:32;;;;;;;15.90;11.00;;;;;;;17.01;48.12;99731.81;130609;1267;108808;-79
2022/05/22 15:04:38;;;;;;;10.20;7.70;;;;;;;17.09;48.13;99734.42;130489;1268;108942;-76
2022/05/22 15:07:54;;;;;;;8.30;6.40;;;;;;;17.04;48.11;99726.08;130475;1266;108877;-78
2022/05/22 15:11:10;;;;;;;3.40;1.50;;;;;;;16.91;47.33;99736.61;130487;1268;108847;-77
2022/05/22 15:14:26;;;;;;;3.90;2.40;;;;;;;16.75;47.94;99729.98;130435;1267;108744;-79